Bookmark and Share
Track history (hours):
 

Polfoss

Last reported at 2014-Apr-23 12:33 UTC. Time now 2014-Apr-23 13:14 UTC.
Position N 69°39' E 018°58'.

Length 82 m; draft 5.2 m.

Type: Cargo ship. MMSI: 305081000.

NotesDate/timePositionNaut miles runAvg speedWind from/ knotsBaromVisibWave heightAir tempDewpointWater temp
2014-Apr-23 12:33N 69°39' E 018°58'0 0.0
2014-Apr-23 11:33N 69°39' E 018°58'0 0.0
2014-Apr-23 10:33N 69°39' E 018°58'0 0.0
2014-Apr-23 09:33N 69°39' E 018°58'0 0.0
2014-Apr-23 08:33N 69°39' E 018°58'0 0.0
2014-Apr-23 07:33N 69°39' E 018°58'0 0.1
2014-Apr-23 06:33N 69°40' E 018°58'0 0.0
2014-Apr-23 05:33N 69°40' E 018°58'0 0.0
2014-Apr-23 04:33N 69°40' E 018°58'0 0.0
2014-Apr-23 03:33N 69°40' E 018°58'0 0.0
2014-Apr-23 02:33N 69°40' E 018°58'0 0.0
2014-Apr-23 01:33N 69°40' E 018°58'0 0.0
2014-Apr-23 00:33N 69°40' E 018°58'0 0.0
2014-Apr-22 23:33N 69°40' E 018°58'0 0.0
2014-Apr-22 22:33N 69°40' E 018°58'1 0.9
2014-Apr-22 21:33N 69°40' E 018°59'156 7.8
2014-Apr-22 01:25N 67°43' E 014°15'1213.9
2014-Apr-22 00:33N 67°31' E 014°21'1313.1
2014-Apr-21 23:33N 67°18' E 014°17'1515.1
2014-Apr-21 22:33N 67°05' E 013°57'1514.2
2014-Apr-21 21:30N 66°55' E 013°29'2814.3
2014-Apr-21 19:33N 66°30' E 012°58'1815.3
2014-Apr-21 18:21N 66°12' E 012°52'27912.7
2014-Apr-20 20:21N 62°33' E 006°11'5 6.7
2014-Apr-20 19:33N 62°28' E 006°08'19310.0
2014-Apr-20 00:11N 59°16' E 005°20'914.4
2014-Apr-19 23:33N 59°08' E 005°26'1413.7
2014-Apr-19 22:34N 58°60' E 005°48'9 8.5
2014-Apr-19 21:33N 58°51' E 005°45'0 0.0
2014-Apr-19 20:33N 58°51' E 005°45'0 0.0
2014-Apr-19 19:33N 58°51' E 005°45'3 3.4
2014-Apr-19 18:33N 58°55' E 005°46'10 9.6
2014-Apr-19 17:33N 59°02' E 005°34'1413.6
2014-Apr-19 16:33N 58°49' E 005°25'10614.9
2014-Apr-19 09:27N 58°08' E 002°18'6615.0
2014-Apr-19 05:03N 57°42' E 000°23'1114.8
2014-Apr-19 04:20N 57°38' E 000°04'1614.7
2014-Apr-19 03:14N 57°32' W 000°23'1014.6
2014-Apr-19 02:33N 57°28' W 000°40'1514.4
2014-Apr-19 01:31N 57°22' W 001°06'1414.6
2014-Apr-19 00:33N 57°16' W 001°30'2014.7
2014-Apr-18 23:12N 57°09' W 002°03'1 1.5
2014-Apr-18 22:31N 57°09' W 002°05'0 0.0
2014-Apr-18 21:33N 57°09' W 002°05'0 0.0
2014-Apr-18 20:32N 57°09' W 002°05'0 0.0
2014-Apr-18 19:32N 57°09' W 002°05'0 0.0
2014-Apr-18 18:31N 57°09' W 002°05'0 0.0
2014-Apr-18 17:31N 57°09' W 002°05'0 0.0
2014-Apr-18 16:33N 57°09' W 002°05'0 0.0
2014-Apr-18 15:32N 57°09' W 002°05'0 0.0
2014-Apr-18 14:32N 57°09' W 002°05'0 0.0
2014-Apr-18 13:31N 57°09' W 002°05'0 0.0
2014-Apr-18 12:31N 57°09' W 002°05'13112.0
2014-Apr-18 01:33N 55°07' W 000°35'1913.2
2014-Apr-18 00:09N 54°50' W 000°24'915.3
2014-Apr-17 23:33N 54°41' W 000°18'1615.7
2014-Apr-17 22:33N 54°27' W 000°08'1615.7
2014-Apr-17 21:33N 54°12' E 000°02'1515.2
2014-Apr-17 20:33N 53°58' E 000°11'1514.5
2014-Apr-17 19:33N 53°45' E 000°20'1212.2
2014-Apr-17 18:33N 53°33' E 000°14'1110.8
2014-Apr-17 17:33N 53°35' W 000°04'1 0.6
2014-Apr-17 16:34N 53°35' W 000°04'0 0.0
2014-Apr-17 15:34N 53°35' W 000°04'0 0.0
2014-Apr-17 14:33N 53°35' W 000°04'0 0.0
2014-Apr-17 13:33N 53°35' W 000°04'0 0.0
2014-Apr-17 12:34N 53°35' W 000°04'0 0.0
2014-Apr-17 11:33N 53°35' W 000°04'0 0.0
2014-Apr-17 10:33N 53°35' W 000°04'0 0.0
2014-Apr-17 09:34N 53°35' W 000°04'0 0.0
2014-Apr-17 08:34N 53°35' W 000°04'0 0.0
2014-Apr-17 07:34N 53°35' W 000°04'0 0.0
2014-Apr-17 06:33N 53°35' W 000°04'0 0.0
2014-Apr-17 05:34N 53°35' W 000°04'0 0.0
2014-Apr-17 04:33N 53°35' W 000°04'0 0.0
2014-Apr-17 03:33N 53°35' W 000°04'0 0.0
2014-Apr-17 02:33N 53°35' W 000°04'0 0.0
2014-Apr-17 01:34N 53°35' W 000°04'0 0.0
2014-Apr-17 00:33N 53°35' W 000°04'0 0.0
2014-Apr-16 23:33N 53°35' W 000°04'0 0.0
2014-Apr-16 22:33N 53°35' W 000°04'0 0.0
2014-Apr-16 21:34N 53°35' W 000°04'0 0.0
2014-Apr-16 20:33N 53°35' W 000°04'0 0.0
2014-Apr-16 19:33N 53°35' W 000°04'0 0.0
2014-Apr-16 18:33N 53°35' W 000°04'0 0.0
2014-Apr-16 17:33N 53°35' W 000°04'3 3.3
2014-Apr-16 16:33N 53°36' E 000°01'9 9.2
2014-Apr-16 15:33N 53°32' E 000°15'8 8.0
2014-Apr-16 14:33N 53°29' E 000°27'24 9.8
2014-Apr-16 12:08N 53°19' E 001°04'1212.9
2014-Apr-16 11:14N 53°14' E 001°21'913.0
2014-Apr-16 10:33N 53°10' E 001°34'1312.9
2014-Apr-16 09:34N 53°05' E 001°54'6212.4
2014-Apr-16 04:33N 52°39' E 003°28'1312.9
2014-Apr-16 03:33N 52°34' E 003°47'1212.1
2014-Apr-16 02:33N 52°31' E 004°06'1312.6
2014-Apr-16 01:34N 52°29' E 004°27'6 6.0
2014-Apr-16 00:34N 52°28' E 004°36'2 2.1
2014-Apr-15 23:33N 52°28' E 004°40'0 0.0
2014-Apr-15 22:32N 52°28' E 004°40'0 0.0
2014-Apr-15 21:32N 52°28' E 004°40'0 0.0
2014-Apr-15 20:31N 52°28' E 004°40'0 0.0
2014-Apr-15 19:33N 52°28' E 004°40'0 0.0
2014-Apr-15 18:33N 52°28' E 004°40'0 0.0
2014-Apr-15 17:32N 52°28' E 004°40'0 0.0
2014-Apr-15 16:31N 52°28' E 004°40'0 0.0
2014-Apr-15 15:31N 52°28' E 004°40'0 0.0
2014-Apr-15 14:33N 52°28' E 004°40'0 0.0
2014-Apr-15 12:33N 52°28' E 004°40'0 0.0
2014-Apr-15 11:32N 52°28' E 004°40'0 0.0
2014-Apr-15 10:32N 52°28' E 004°40'0 0.0
2014-Apr-15 09:31N 52°28' E 004°40'0 0.0
2014-Apr-15 08:33N 52°28' E 004°40'0 0.0
2014-Apr-15 07:33N 52°28' E 004°40'0 0.0
2014-Apr-15 06:34N 52°28' E 004°40'0 0.0
2014-Apr-15 05:33N 52°28' E 004°40'0 0.0
2014-Apr-15 03:34N 52°28' E 004°40'0 0.0
2014-Apr-15 02:34N 52°28' E 004°40'2 2.0
2014-Apr-15 01:34N 52°28' E 004°37'2 2.0
2014-Apr-15 00:34N 52°28' E 004°33'1313.3
2014-Apr-14 23:34N 52°29' E 004°11'1313.3
2014-Apr-14 22:34N 52°40' E 003°58'1514.5
2014-Apr-14 21:34N 52°54' E 003°59'35114.0
2014-Apr-13 20:29N 58°42' E 005°23'1213.3
2014-Apr-13 19:33N 58°54' E 005°32'1010.3
2014-Apr-13 18:33N 59°02' E 005°44'1110.6
2014-Apr-13 17:34N 58°51' E 005°45'0 0.0
2014-Apr-13 16:33N 58°51' E 005°45'1010.4
2014-Apr-13 15:33N 59°02' E 005°43'1313.4
2014-Apr-13 14:33N 59°09' E 005°21'  

Dump ship's entire track history

sailing weather and tide predictions

Polfoss — V2PN7 — position and weather